createdAt,value
2023-05-21T00:02:01.616Z,8.68
2023-05-21T00:05:03.370Z,11.75
2023-05-21T00:08:05.309Z,8.73
2023-05-21T00:11:07.092Z,12.48
2023-05-21T00:14:08.664Z,9.85
2023-05-21T00:17:10.293Z,7.75
2023-05-21T00:20:12.876Z,9.25
2023-05-21T00:23:18.135Z,10.30
2023-05-21T00:26:21.632Z,7.93
2023-05-21T00:29:23.612Z,10.30
2023-05-21T00:32:25.578Z,9.00
2023-05-21T00:35:27.342Z,10.02
2023-05-21T00:38:29.014Z,13.20
2023-05-21T00:41:30.626Z,12.48
2023-05-21T00:44:34.466Z,10.32
2023-05-21T00:47:36.452Z,12.77
2023-05-21T00:50:39.819Z,12.00
2023-05-21T00:53:41.762Z,11.55
2023-05-21T00:56:43.469Z,10.23
2023-05-21T00:59:45.155Z,14.07
2023-05-21T01:02:47.677Z,9.82
2023-05-21T01:05:53.352Z,12.75
2023-05-21T01:08:56.351Z,13.20
2023-05-21T01:12:00.417Z,9.15
2023-05-21T01:15:05.727Z,12.98
2023-05-21T01:18:07.868Z,11.55
2023-05-21T01:21:09.805Z,10.00
2023-05-21T01:24:11.441Z,13.18
2023-05-21T01:27:13.081Z,8.63
2023-05-21T01:30:16.740Z,11.63
2023-05-21T01:33:36.757Z,9.57
2023-05-21T01:36:43.668Z,9.88
2023-05-21T01:39:54.585Z,12.00
2023-05-21T01:42:57.203Z,9.52
2023-05-21T01:46:01.046Z,9.55
2023-05-21T01:49:04.250Z,14.85
2023-05-21T01:52:06.097Z,11.75
2023-05-21T01:55:07.945Z,10.65
2023-05-21T01:58:10.118Z,10.82
2023-05-21T02:01:12.082Z,14.10
2023-05-21T02:04:13.653Z,13.35
2023-05-21T02:07:15.257Z,10.40
2023-05-21T02:10:16.933Z,9.05
2023-05-21T02:13:24.059Z,14.00
2023-05-21T02:16:27.563Z,12.27
2023-05-21T02:19:29.432Z,12.90
2023-05-21T02:22:31.163Z,11.20
2023-05-21T02:25:32.846Z,11.23
2023-05-21T02:28:36.230Z,12.07
2023-05-21T02:31:38.080Z,12.05
2023-05-21T02:34:42.443Z,9.93
2023-05-21T02:37:44.475Z,12.38
2023-05-21T02:40:46.601Z,11.20
2023-05-21T02:43:48.234Z,10.90
2023-05-21T02:46:49.851Z,11.23
2023-05-21T02:49:53.137Z,12.60
2023-05-21T02:52:54.762Z,14.00
2023-05-21T02:55:56.621Z,10.95
2023-05-21T02:58:58.179Z,13.55
2023-05-21T03:01:59.824Z,10.43
2023-05-21T03:05:01.532Z,12.68
2023-05-21T03:08:03.592Z,10.80
2023-05-21T03:11:05.242Z,13.48
2023-05-21T03:14:07.491Z,12.20
2023-05-21T03:17:09.139Z,10.95
2023-05-21T03:20:17.102Z,10.07
2023-05-21T03:23:18.727Z,12.13
2023-05-21T03:26:22.097Z,12.52
2023-05-21T03:29:23.733Z,10.95
2023-05-21T03:32:25.618Z,10.70
2023-05-21T03:35:27.302Z,11.13
2023-05-21T03:38:28.990Z,10.55
2023-05-21T03:41:30.865Z,10.57
2023-05-21T03:44:32.883Z,11.05
2023-05-21T03:47:36.096Z,9.30
2023-05-21T03:50:37.809Z,8.95
2023-05-21T03:53:39.451Z,9.07
2023-05-21T03:56:41.154Z,10.02
2023-05-21T03:59:42.782Z,9.30
2023-05-21T04:02:44.448Z,10.10
2023-05-21T04:05:46.225Z,8.32
2023-05-21T04:08:48.183Z,9.30
2023-05-21T04:11:49.844Z,10.05
2023-05-21T04:14:51.712Z,8.90
2023-05-21T04:17:54.635Z,17.48
2023-05-21T04:20:56.271Z,10.10
2023-05-21T04:23:58.482Z,9.75
2023-05-21T04:27:01.656Z,8.50
2023-05-21T04:30:04.395Z,9.05
2023-05-21T04:33:06.011Z,8.85
2023-05-21T04:36:09.950Z,8.15
2023-05-21T04:39:12.618Z,8.85
2023-05-21T04:42:14.273Z,9.25
2023-05-21T04:45:16.008Z,9.70
2023-05-21T04:48:17.987Z,9.32
2023-05-21T04:51:19.593Z,8.60
2023-05-21T04:54:21.263Z,8.65
2023-05-21T04:57:24.589Z,8.15
2023-05-21T05:00:26.236Z,9.98
2023-05-21T05:03:29.952Z,8.15
2023-05-21T05:06:31.743Z,9.07
2023-05-21T05:09:33.363Z,8.27
2023-05-21T05:12:35.225Z,9.05
2023-05-21T05:15:37.102Z,7.03
2023-05-21T05:18:38.882Z,8.32
2023-05-21T05:21:40.460Z,6.63
2023-05-21T05:24:42.153Z,5.03
2023-05-21T05:27:44.032Z,6.32
2023-05-21T05:30:45.802Z,7.47
2023-05-21T05:33:48.446Z,5.10
2023-05-21T05:36:50.102Z,7.85
2023-05-21T05:39:51.751Z,7.35
2023-05-21T05:42:53.467Z,6.25
2023-05-21T05:45:55.064Z,6.63
2023-05-21T05:48:56.693Z,6.18
2023-05-21T05:51:58.507Z,10.40
2023-05-21T05:55:00.121Z,6.35
2023-05-21T05:58:01.785Z,5.90
2023-05-21T06:01:03.397Z,7.78
2023-05-21T06:04:05.179Z,7.30
2023-05-21T06:07:06.819Z,6.40
2023-05-21T06:10:09.093Z,6.25
2023-05-21T06:13:10.725Z,6.97
2023-05-21T06:16:12.751Z,5.60
2023-05-21T06:19:14.546Z,5.00
2023-05-21T06:22:16.291Z,6.95
2023-05-21T06:25:18.366Z,4.07
2023-05-21T06:28:20.931Z,5.70
2023-05-21T06:31:23.518Z,5.05
2023-05-21T06:34:25.815Z,7.28
2023-05-21T06:37:27.414Z,6.85
2023-05-21T06:40:29.048Z,6.18
2023-05-21T06:43:30.789Z,6.35
2023-05-21T06:46:32.564Z,6.43
2023-05-21T06:49:34.532Z,5.03
2023-05-21T06:52:36.329Z,6.55
2023-05-21T06:55:38.149Z,5.20
2023-05-21T06:58:40.000Z,4.65
2023-05-21T07:01:44.589Z,7.57
2023-05-21T07:04:46.357Z,5.05
2023-05-21T07:07:47.966Z,5.53
2023-05-21T07:10:49.950Z,6.78
2023-05-21T07:13:51.526Z,6.82
2023-05-21T07:16:53.563Z,4.63
2023-05-21T07:19:55.128Z,3.88
2023-05-21T07:22:56.948Z,4.95
2023-05-21T07:25:58.939Z,5.00
2023-05-21T07:29:00.826Z,7.65
2023-05-21T07:32:03.215Z,5.93
2023-05-21T07:35:05.113Z,4.97
2023-05-21T07:38:06.819Z,10.48
2023-05-21T07:41:08.476Z,7.88
2023-05-21T07:44:16.253Z,4.45
2023-05-21T07:47:18.712Z,6.45
2023-05-21T07:50:20.494Z,7.20
2023-05-21T07:53:22.184Z,5.68
2023-05-21T07:56:23.813Z,6.10
2023-05-21T07:59:25.977Z,4.90
2023-05-21T08:02:27.671Z,5.32
2023-05-21T08:05:30.206Z,5.95
2023-05-21T08:08:31.849Z,8.65
2023-05-21T08:11:33.523Z,7.57
2023-05-21T08:14:35.213Z,5.90
2023-05-21T08:17:36.876Z,4.50
2023-05-21T08:20:38.491Z,4.47
2023-05-21T08:23:40.151Z,5.78
2023-05-21T08:26:41.799Z,7.90
2023-05-21T08:29:43.705Z,3.97
2023-05-21T08:32:47.740Z,5.50
2023-05-21T08:35:49.546Z,5.53
2023-05-21T08:38:51.268Z,5.00
2023-05-21T08:42:02.727Z,8.65
2023-05-21T08:45:06.991Z,6.32
2023-05-21T08:48:11.756Z,6.22
2023-05-21T08:51:13.714Z,6.18
2023-05-21T08:54:15.439Z,5.20
2023-05-21T08:57:18.851Z,6.05
2023-05-21T09:00:21.234Z,4.47
2023-05-21T09:03:24.316Z,3.40
2023-05-21T09:06:26.297Z,5.25
2023-05-21T09:09:40.136Z,5.13
2023-05-21T09:12:42.120Z,4.60
2023-05-21T09:15:47.676Z,5.28
2023-05-21T09:18:49.695Z,5.53
2023-05-21T09:21:52.919Z,6.65
2023-05-21T09:24:54.643Z,7.85
2023-05-21T09:27:57.148Z,5.80
2023-05-21T09:31:03.403Z,4.47
2023-05-21T09:34:05.102Z,7.10
2023-05-21T09:37:16.435Z,6.82
2023-05-21T09:40:24.162Z,7.55
2023-05-21T09:43:26.025Z,4.65
2023-05-21T09:46:27.803Z,5.28
2023-05-21T09:49:30.302Z,5.20
2023-05-21T09:52:32.077Z,4.72
2023-05-21T09:55:36.383Z,4.03
2023-05-21T09:58:38.669Z,5.43
2023-05-21T10:01:40.437Z,4.22
2023-05-21T10:04:43.241Z,5.28
2023-05-21T10:07:53.717Z,7.07
2023-05-21T10:10:56.065Z,3.90
2023-05-21T10:14:09.515Z,5.68
2023-05-21T10:17:12.737Z,4.50
2023-05-21T10:20:14.594Z,5.72
2023-05-21T10:23:18.175Z,4.32
2023-05-21T10:26:24.210Z,5.10
2023-05-21T10:29:26.129Z,4.30
2023-05-21T10:32:28.399Z,4.45
2023-05-21T10:35:30.877Z,4.45
2023-05-21T10:38:33.987Z,4.10
2023-05-21T10:41:46.712Z,5.43
2023-05-21T10:45:21.129Z,4.00
2023-05-21T10:49:00.154Z,5.47
2023-05-21T10:52:14.410Z,3.92
2023-05-21T10:55:29.245Z,4.50
2023-05-21T10:58:33.810Z,5.32
2023-05-21T11:01:38.358Z,6.28
2023-05-21T11:04:43.232Z,4.93
2023-05-21T11:07:57.446Z,5.85
2023-05-21T11:10:59.496Z,3.90
2023-05-21T11:14:01.105Z,4.75
2023-05-21T11:17:06.725Z,3.78
2023-05-21T11:20:17.236Z,4.57
2023-05-21T11:23:21.108Z,4.40
2023-05-21T11:26:50.484Z,3.83
2023-05-21T11:29:55.823Z,7.90
2023-05-21T11:33:13.968Z,4.85
2023-05-21T11:36:15.979Z,4.85
2023-05-21T11:39:27.745Z,3.67
2023-05-21T11:42:34.250Z,3.25
2023-05-21T11:45:36.564Z,5.47
2023-05-21T11:48:39.313Z,3.38
2023-05-21T11:51:40.980Z,4.40
2023-05-21T11:54:46.464Z,4.60
2023-05-21T11:57:48.794Z,4.65
2023-05-21T12:00:51.201Z,3.95
2023-05-21T12:03:52.997Z,3.97
2023-05-21T12:06:55.484Z,3.47
2023-05-21T12:09:57.816Z,4.18
2023-05-21T12:12:59.516Z,5.18
2023-05-21T12:16:04.572Z,4.32
2023-05-21T12:19:08.352Z,4.45
2023-05-21T12:22:10.136Z,4.72
2023-05-21T12:25:12.330Z,3.80
2023-05-21T12:28:14.342Z,3.95
2023-05-21T12:31:16.279Z,4.28
2023-05-21T12:34:44.526Z,5.15
2023-05-21T12:37:46.146Z,4.28
2023-05-21T12:40:47.972Z,5.70
2023-05-21T12:43:51.003Z,5.28
2023-05-21T12:46:52.714Z,4.78
2023-05-21T12:49:58.103Z,4.10
2023-05-21T12:52:59.785Z,6.22
2023-05-21T12:56:11.616Z,5.85
2023-05-21T12:59:15.375Z,4.13
2023-05-21T13:02:25.604Z,6.43
2023-05-21T13:05:27.313Z,3.53
2023-05-21T13:08:29.438Z,4.35
2023-05-21T13:11:31.127Z,4.43
2023-05-21T13:14:32.766Z,5.35
2023-05-21T13:17:34.979Z,5.45
2023-05-21T13:20:37.175Z,4.85
2023-05-21T13:23:38.965Z,4.40
2023-05-21T13:26:40.708Z,4.03
2023-05-21T13:29:42.272Z,4.53
2023-05-21T13:32:44.435Z,6.60
2023-05-21T13:35:51.107Z,5.95
2023-05-21T13:38:52.714Z,5.50
2023-05-21T13:41:54.318Z,4.35
2023-05-21T13:44:55.990Z,4.28
2023-05-21T13:47:58.293Z,5.75
2023-05-21T13:50:59.953Z,4.88
2023-05-21T13:54:01.602Z,5.40
2023-05-21T13:57:03.418Z,4.28
2023-05-21T14:00:05.929Z,5.05
2023-05-21T14:03:09.944Z,4.88
2023-05-21T14:06:11.605Z,4.15
2023-05-21T14:09:14.314Z,5.63
2023-05-21T14:12:16.912Z,4.55
2023-05-21T14:15:18.621Z,4.78
2023-05-21T14:18:20.439Z,4.93
2023-05-21T14:21:22.296Z,4.05
2023-05-21T14:24:23.906Z,4.32
2023-05-21T14:27:25.555Z,6.13
2023-05-21T14:30:27.303Z,4.22
2023-05-21T14:33:31.144Z,4.85
2023-05-21T14:36:33.062Z,6.20
2023-05-21T14:39:34.780Z,9.02
2023-05-21T14:42:36.783Z,4.20
2023-05-21T14:45:38.477Z,4.95
2023-05-21T14:48:40.235Z,5.13
2023-05-21T14:51:43.628Z,5.88
2023-05-21T14:54:45.477Z,3.90
2023-05-21T14:57:47.105Z,4.90
2023-05-21T15:00:48.870Z,5.75
2023-05-21T15:03:50.666Z,6.28
2023-05-21T15:06:52.396Z,5.10
2023-05-21T15:09:54.011Z,4.88
2023-05-21T15:12:55.648Z,5.97
2023-05-21T15:15:57.439Z,4.10
2023-05-21T15:18:59.090Z,5.00
2023-05-21T15:22:00.800Z,4.25
2023-05-21T15:25:03.779Z,4.13
2023-05-21T15:28:05.458Z,4.70
2023-05-21T15:31:07.147Z,4.18
2023-05-21T15:34:08.892Z,5.25
2023-05-21T15:37:10.695Z,4.35
2023-05-21T15:40:12.792Z,4.35
2023-05-21T15:43:14.353Z,5.63
2023-05-21T15:46:16.306Z,6.13
2023-05-21T15:49:18.057Z,5.75
2023-05-21T15:52:20.059Z,7.30
2023-05-21T15:55:21.745Z,4.68
2023-05-21T15:58:23.350Z,4.57
2023-05-21T16:01:26.288Z,4.75
2023-05-21T16:04:28.104Z,5.38
2023-05-21T16:07:29.674Z,3.97
2023-05-21T16:10:31.338Z,5.60
2023-05-21T16:13:32.917Z,8.60
2023-05-21T16:16:34.695Z,4.38
2023-05-21T16:19:36.508Z,5.18
2023-05-21T16:22:38.243Z,4.50
2023-05-21T16:25:40.042Z,6.63
2023-05-21T16:28:41.795Z,5.00
2023-05-21T16:31:43.504Z,5.28
2023-05-21T16:34:45.146Z,5.45
2023-05-21T16:37:46.826Z,4.82
2023-05-21T16:40:49.102Z,4.65
2023-05-21T16:43:52.522Z,5.43
2023-05-21T16:46:54.385Z,4.30
2023-05-21T16:49:56.104Z,5.07
2023-05-21T16:52:59.210Z,4.57
2023-05-21T16:56:00.798Z,3.83
2023-05-21T16:59:02.440Z,5.75
2023-05-21T17:02:04.140Z,5.32
2023-05-21T17:05:06.282Z,3.90
2023-05-21T17:08:08.737Z,6.35
2023-05-21T17:11:10.570Z,5.22
2023-05-21T17:14:17.545Z,4.75
2023-05-21T17:17:25.217Z,5.25
2023-05-21T17:20:26.951Z,5.93
2023-05-21T17:23:28.620Z,5.18
2023-05-21T17:26:30.273Z,4.63
2023-05-21T17:29:32.458Z,4.43
2023-05-21T17:32:34.173Z,5.80
2023-05-21T17:35:36.209Z,5.70
2023-05-21T17:38:37.927Z,5.15
2023-05-21T17:41:39.558Z,5.38
2023-05-21T17:44:41.190Z,4.00
2023-05-21T17:47:42.906Z,4.47
2023-05-21T17:50:46.872Z,5.50
2023-05-21T17:53:48.537Z,8.18
2023-05-21T17:56:50.175Z,5.70
2023-05-21T17:59:51.774Z,6.53
2023-05-21T18:02:53.450Z,4.32
2023-05-21T18:05:55.061Z,7.28
2023-05-21T18:08:57.272Z,4.07
2023-05-21T18:11:59.971Z,5.88
2023-05-21T18:15:02.279Z,5.35
2023-05-21T18:18:04.077Z,4.53
2023-05-21T18:21:05.855Z,4.32
2023-05-21T18:24:07.875Z,6.10
2023-05-21T18:27:09.608Z,4.47
2023-05-21T18:30:11.892Z,5.75
2023-05-21T18:33:15.323Z,9.90
2023-05-21T18:36:17.629Z,6.00
2023-05-21T18:39:24.410Z,7.93
2023-05-21T18:42:26.380Z,4.82
2023-05-21T18:45:28.207Z,4.47
2023-05-21T18:48:29.851Z,4.63
2023-05-21T18:51:31.669Z,6.13
2023-05-21T18:54:33.418Z,4.75
2023-05-21T18:57:35.099Z,4.57
2023-05-21T19:00:39.601Z,5.53
2023-05-21T19:03:41.340Z,5.45
2023-05-21T19:06:43.114Z,5.22
2023-05-21T19:09:44.812Z,4.03
2023-05-21T19:12:46.630Z,6.68
2023-05-21T19:15:48.973Z,6.45
2023-05-21T19:18:50.979Z,4.38
2023-05-21T19:21:52.988Z,6.85
2023-05-21T19:24:55.012Z,6.65
2023-05-21T19:27:56.623Z,5.68
2023-05-21T19:30:58.333Z,5.43
2023-05-21T19:33:59.932Z,5.40
2023-05-21T19:37:01.595Z,5.15
2023-05-21T19:40:03.626Z,6.55
2023-05-21T19:43:05.394Z,5.90
2023-05-21T19:46:07.054Z,6.03
2023-05-21T19:49:11.013Z,7.35
2023-05-21T19:52:12.910Z,5.45
2023-05-21T19:55:20.036Z,4.68
2023-05-21T19:58:24.980Z,7.25
2023-05-21T20:01:29.167Z,7.75
2023-05-21T20:04:32.606Z,6.70
2023-05-21T20:07:34.246Z,5.60
2023-05-21T20:10:36.256Z,5.72
2023-05-21T20:13:37.986Z,6.30
2023-05-21T20:16:39.623Z,5.35
2023-05-21T20:19:41.316Z,6.30
2023-05-21T20:22:42.922Z,7.07
2023-05-21T20:25:44.524Z,5.63
2023-05-21T20:28:46.281Z,7.10
2023-05-21T20:31:47.949Z,5.57
2023-05-21T20:35:02.159Z,5.95
2023-05-21T20:38:05.666Z,6.03
2023-05-21T20:41:07.396Z,5.50
2023-05-21T20:44:09.037Z,5.63
2023-05-21T20:47:11.668Z,6.85
2023-05-21T20:50:13.333Z,5.97
2023-05-21T20:53:15.896Z,5.68
2023-05-21T20:56:26.651Z,7.78
2023-05-21T20:59:35.874Z,7.25
2023-05-21T21:02:39.796Z,9.65
2023-05-21T21:05:41.515Z,7.10
2023-05-21T21:08:52.222Z,8.57
2023-05-21T21:11:53.885Z,6.05
2023-05-21T21:14:55.700Z,6.50
2023-05-21T21:17:57.511Z,6.57
2023-05-21T21:20:59.247Z,5.88
2023-05-21T21:24:00.999Z,5.97
2023-05-21T21:27:02.675Z,9.25
2023-05-21T21:30:04.764Z,6.78
2023-05-21T21:33:09.424Z,6.45
2023-05-21T21:36:12.573Z,6.78
2023-05-21T21:39:14.210Z,8.07
2023-05-21T21:42:16.070Z,5.85
2023-05-21T21:45:17.704Z,6.43
2023-05-21T21:48:19.346Z,6.05
2023-05-21T21:51:23.142Z,7.93
2023-05-21T21:54:25.218Z,6.22
2023-05-21T21:57:29.482Z,7.28
2023-05-21T22:00:31.162Z,6.88
2023-05-21T22:03:34.426Z,4.63
2023-05-21T22:06:39.013Z,6.95
2023-05-21T22:09:40.675Z,5.15
2023-05-21T22:12:43.047Z,10.45
2023-05-21T22:15:44.711Z,7.28
2023-05-21T22:18:46.678Z,8.30
2023-05-21T22:21:48.325Z,9.63
2023-05-21T22:24:49.950Z,9.07
2023-05-21T22:27:52.301Z,10.70
2023-05-21T22:30:53.995Z,9.48
2023-05-21T22:33:55.638Z,8.45
2023-05-21T22:36:57.241Z,8.45
2023-05-21T22:39:58.939Z,8.77
2023-05-21T22:43:02.466Z,8.65
2023-05-21T22:46:04.120Z,6.85
2023-05-21T22:49:06.318Z,9.65
2023-05-21T22:52:09.408Z,7.40
2023-05-21T22:55:11.656Z,7.55
2023-05-21T22:58:13.283Z,7.97
2023-05-21T23:01:14.917Z,9.00
2023-05-21T23:04:16.644Z,9.50
2023-05-21T23:07:18.269Z,9.43
2023-05-21T23:10:19.925Z,7.82
2023-05-21T23:13:21.494Z,7.63
2023-05-21T23:16:24.011Z,7.30
2023-05-21T23:19:25.789Z,9.43
2023-05-21T23:22:32.752Z,7.45
2023-05-21T23:25:35.114Z,8.80
2023-05-21T23:28:37.279Z,7.43
2023-05-21T23:31:39.063Z,10.23
2023-05-21T23:34:41.967Z,9.80
2023-05-21T23:37:43.611Z,9.80
2023-05-21T23:40:45.445Z,9.77
2023-05-21T23:43:47.002Z,10.57
2023-05-21T23:46:49.912Z,11.05
2023-05-21T23:49:52.254Z,8.73
2023-05-21T23:52:53.993Z,9.07
2023-05-21T23:55:55.580Z,6.97
2023-05-21T23:58:57.440Z,8.57
